createdAt,value
2023-05-09T00:01:29.952Z,10.38
2023-05-09T00:03:58.297Z,10.40
2023-05-09T00:06:27.075Z,13.38
2023-05-09T00:08:55.808Z,13.63
2023-05-09T00:11:23.207Z,15.90
2023-05-09T00:13:51.223Z,18.10
2023-05-09T00:16:18.697Z,14.15
2023-05-09T00:18:48.583Z,13.23
2023-05-09T00:21:16.430Z,12.93
2023-05-09T00:23:43.296Z,13.60
2023-05-09T00:26:10.672Z,12.35
2023-05-09T00:28:37.651Z,13.68
2023-05-09T00:31:05.648Z,12.07
2023-05-09T00:33:32.737Z,11.50
2023-05-09T00:35:59.631Z,14.50
2023-05-09T00:38:26.590Z,14.98
2023-05-09T00:40:53.510Z,11.75
2023-05-09T00:43:22.289Z,12.82
2023-05-09T00:45:49.987Z,12.07
2023-05-09T00:48:17.020Z,13.60
2023-05-09T00:50:45.226Z,10.70
2023-05-09T00:53:12.282Z,11.45
2023-05-09T00:55:40.513Z,11.95
2023-05-09T00:58:07.393Z,12.95
2023-05-09T01:00:34.243Z,10.50
2023-05-09T01:03:01.172Z,11.98
2023-05-09T01:05:36.845Z,12.38
2023-05-09T01:08:10.689Z,10.82
2023-05-09T01:10:46.516Z,15.93
2023-05-09T01:13:31.966Z,11.85
2023-05-09T01:16:01.644Z,11.05
2023-05-09T01:18:44.326Z,12.07
2023-05-09T01:21:17.287Z,11.57
2023-05-09T01:23:44.325Z,11.48
2023-05-09T01:26:29.942Z,13.98
2023-05-09T01:29:42.379Z,16.77
2023-05-09T01:32:17.550Z,16.02
2023-05-09T01:34:45.743Z,14.35
2023-05-09T01:37:16.377Z,14.40
2023-05-09T01:39:50.501Z,13.80
2023-05-09T01:42:20.220Z,11.85
2023-05-09T01:44:47.679Z,12.05
2023-05-09T01:47:16.890Z,13.40
2023-05-09T01:49:44.799Z,11.90
2023-05-09T01:52:17.657Z,12.25
2023-05-09T01:54:45.923Z,14.50
2023-05-09T01:57:14.586Z,11.40
2023-05-09T01:59:44.115Z,10.95
2023-05-09T02:02:11.728Z,12.15
2023-05-09T02:04:40.720Z,13.02
2023-05-09T02:07:09.523Z,10.43
2023-05-09T02:09:36.819Z,9.85
2023-05-09T02:12:04.827Z,6.57
2023-05-09T02:14:31.820Z,6.03
2023-05-09T02:17:06.192Z,5.30
2023-05-09T02:19:35.372Z,5.13
2023-05-09T02:22:04.807Z,4.22
2023-05-09T02:24:34.398Z,4.55
2023-05-09T02:27:03.537Z,4.25
2023-05-09T02:29:40.504Z,4.05
2023-05-09T02:32:23.152Z,4.32
2023-05-09T02:34:56.411Z,4.43
2023-05-09T02:37:24.474Z,5.60
2023-05-09T02:39:51.797Z,4.85
2023-05-09T02:42:26.801Z,5.50
2023-05-09T02:44:54.218Z,6.20
2023-05-09T02:47:21.678Z,5.93
2023-05-09T02:49:48.582Z,6.35
2023-05-09T02:52:15.814Z,6.90
2023-05-09T02:54:43.279Z,5.25
2023-05-09T02:57:10.620Z,5.78
2023-05-09T02:59:37.497Z,4.95
2023-05-09T03:02:04.633Z,5.53
2023-05-09T03:04:31.606Z,5.25
2023-05-09T03:06:58.916Z,4.57
2023-05-09T03:09:26.074Z,5.20
2023-05-09T03:11:53.590Z,6.68
2023-05-09T03:14:20.490Z,4.93
2023-05-09T03:16:47.419Z,6.75
2023-05-09T03:19:14.735Z,4.85
2023-05-09T03:21:41.924Z,4.93
2023-05-09T03:24:10.483Z,4.38
2023-05-09T03:26:37.788Z,4.50
2023-05-09T03:29:04.705Z,5.20
2023-05-09T03:31:32.030Z,4.82
2023-05-09T03:33:59.364Z,5.13
2023-05-09T03:36:27.486Z,5.60
2023-05-09T03:38:54.760Z,6.75
2023-05-09T03:41:21.702Z,4.97
2023-05-09T03:43:49.092Z,5.18
2023-05-09T03:46:16.053Z,4.90
2023-05-09T03:48:42.988Z,5.53
2023-05-09T03:51:09.842Z,4.45
2023-05-09T03:53:36.794Z,4.60
2023-05-09T03:56:03.654Z,6.07
2023-05-09T03:58:30.502Z,6.15
2023-05-09T04:00:57.557Z,4.20
2023-05-09T04:03:24.463Z,3.75
2023-05-09T04:05:51.429Z,3.22
2023-05-09T04:08:18.678Z,6.50
2023-05-09T04:10:46.114Z,4.25
2023-05-09T04:13:13.072Z,4.47
2023-05-09T04:15:40.212Z,3.00
2023-05-09T04:18:07.589Z,3.45
2023-05-09T04:20:34.986Z,2.85
2023-05-09T04:23:02.253Z,4.65
2023-05-09T04:25:31.127Z,2.60
2023-05-09T04:27:58.073Z,4.78
2023-05-09T04:30:27.158Z,7.93
2023-05-09T04:32:55.384Z,5.07
2023-05-09T04:35:22.927Z,3.00
2023-05-09T04:37:50.082Z,3.80
2023-05-09T04:40:17.653Z,2.88
2023-05-09T04:42:45.235Z,3.38
2023-05-09T04:45:12.839Z,4.07
2023-05-09T04:47:40.194Z,3.85
2023-05-09T04:50:08.182Z,3.05
2023-05-09T04:52:35.810Z,5.03
2023-05-09T04:55:02.815Z,4.45
2023-05-09T04:57:30.101Z,4.30
2023-05-09T04:59:56.969Z,5.60
2023-05-09T05:02:25.260Z,3.33
2023-05-09T05:04:56.103Z,4.28
2023-05-09T05:07:27.490Z,5.00
2023-05-09T05:09:54.292Z,4.47
2023-05-09T05:12:21.854Z,7.60
2023-05-09T05:14:48.772Z,7.07
2023-05-09T05:17:17.486Z,6.78
2023-05-09T05:19:44.793Z,6.75
2023-05-09T05:22:11.719Z,7.43
2023-05-09T05:24:38.961Z,5.82
2023-05-09T05:27:05.772Z,4.22
2023-05-09T05:29:32.715Z,5.38
2023-05-09T05:31:59.572Z,3.95
2023-05-09T05:34:26.856Z,4.53
2023-05-09T05:36:53.741Z,8.52
2023-05-09T05:39:21.036Z,6.05
2023-05-09T05:41:47.859Z,3.78
2023-05-09T05:44:14.814Z,4.22
2023-05-09T05:46:41.667Z,5.82
2023-05-09T05:49:08.584Z,5.07
2023-05-09T05:51:35.497Z,4.35
2023-05-09T05:54:02.425Z,4.55
2023-05-09T05:56:29.273Z,7.78
2023-05-09T05:58:56.730Z,3.25
2023-05-09T06:01:23.962Z,5.30
2023-05-09T06:03:55.861Z,4.72
2023-05-09T06:06:23.561Z,6.38
2023-05-09T06:08:51.049Z,7.03
2023-05-09T06:11:18.761Z,7.25
2023-05-09T06:13:45.712Z,4.72
2023-05-09T06:16:19.568Z,7.07
2023-05-09T06:18:47.987Z,5.95
2023-05-09T06:21:15.250Z,6.68
2023-05-09T06:23:56.925Z,4.82
2023-05-09T06:26:29.509Z,3.15
2023-05-09T06:28:56.432Z,3.28
2023-05-09T06:31:24.924Z,3.88
2023-05-09T06:33:52.860Z,5.90
2023-05-09T06:36:19.799Z,6.28
2023-05-09T06:38:47.042Z,5.43
2023-05-09T06:41:13.981Z,4.38
2023-05-09T06:43:40.944Z,7.55
2023-05-09T06:46:07.908Z,5.00
2023-05-09T06:48:34.904Z,6.07
2023-05-09T06:51:01.833Z,5.20
2023-05-09T06:53:28.688Z,5.88
2023-05-09T06:55:55.635Z,9.30
2023-05-09T06:58:23.120Z,4.90
2023-05-09T07:00:50.038Z,3.97
2023-05-09T07:03:17.046Z,3.00
2023-05-09T07:05:44.390Z,4.40
2023-05-09T07:08:11.667Z,7.93
2023-05-09T07:10:41.500Z,7.72
2023-05-09T07:13:08.834Z,4.05
2023-05-09T07:15:42.248Z,3.38
2023-05-09T07:18:09.937Z,4.22
2023-05-09T07:20:37.430Z,4.18
2023-05-09T07:23:04.689Z,5.07
2023-05-09T07:25:31.959Z,4.90
2023-05-09T07:28:02.011Z,5.18
2023-05-09T07:30:28.925Z,6.35
2023-05-09T07:32:56.797Z,7.00
2023-05-09T07:35:24.065Z,5.30
2023-05-09T07:37:51.289Z,7.35
2023-05-09T07:40:18.386Z,4.15
2023-05-09T07:42:49.934Z,5.97
2023-05-09T07:45:17.965Z,6.35
2023-05-09T07:47:45.970Z,6.30
2023-05-09T07:50:13.001Z,4.43
2023-05-09T07:52:40.576Z,6.10
2023-05-09T07:55:12.598Z,5.50
2023-05-09T07:57:40.054Z,5.85
2023-05-09T08:00:08.913Z,7.18
2023-05-09T08:02:36.421Z,6.15
2023-05-09T08:05:03.882Z,7.68
2023-05-09T08:07:31.176Z,5.53
2023-05-09T08:09:58.144Z,6.20
2023-05-09T08:12:25.010Z,5.93
2023-05-09T08:14:51.852Z,7.40
2023-05-09T08:17:18.971Z,5.45
2023-05-09T08:19:45.868Z,5.30
2023-05-09T08:22:19.895Z,9.10
2023-05-09T08:24:47.150Z,6.70
2023-05-09T08:27:15.576Z,5.80
2023-05-09T08:29:43.250Z,7.65
2023-05-09T08:32:10.102Z,10.30
2023-05-09T08:34:37.165Z,8.68
2023-05-09T08:37:04.862Z,8.52
2023-05-09T08:39:31.984Z,5.30
2023-05-09T08:42:00.108Z,6.45
2023-05-09T08:44:29.165Z,6.13
2023-05-09T08:47:01.060Z,5.40
2023-05-09T08:49:28.837Z,5.78
2023-05-09T08:51:56.919Z,6.93
2023-05-09T08:54:25.292Z,8.07
2023-05-09T08:56:52.380Z,5.13
2023-05-09T08:59:19.749Z,6.65
2023-05-09T09:01:47.597Z,7.57
2023-05-09T09:04:14.963Z,8.13
2023-05-09T09:06:42.758Z,6.15
2023-05-09T09:09:11.854Z,5.03
2023-05-09T09:11:42.174Z,8.00
2023-05-09T09:14:15.127Z,12.52
2023-05-09T09:16:44.627Z,6.93
2023-05-09T09:19:16.595Z,6.82
2023-05-09T09:21:46.836Z,7.43
2023-05-09T09:24:14.839Z,8.48
2023-05-09T09:26:47.788Z,6.15
2023-05-09T09:29:15.852Z,8.15
2023-05-09T09:31:47.172Z,7.40
2023-05-09T09:34:20.808Z,9.13
2023-05-09T09:36:48.592Z,5.32
2023-05-09T09:39:15.898Z,6.78
2023-05-09T09:41:44.790Z,7.70
2023-05-09T09:44:16.290Z,5.97
2023-05-09T09:46:54.263Z,6.43
2023-05-09T09:49:26.895Z,7.15
2023-05-09T09:51:56.982Z,6.32
2023-05-09T09:54:27.234Z,5.07
2023-05-09T09:56:54.853Z,7.55
2023-05-09T09:59:27.370Z,6.53
2023-05-09T10:02:00.664Z,7.05
2023-05-09T10:04:33.631Z,6.55
2023-05-09T10:07:13.548Z,6.13
2023-05-09T10:09:43.796Z,7.28
2023-05-09T10:12:14.649Z,4.20
2023-05-09T10:14:43.322Z,4.80
2023-05-09T10:17:13.706Z,5.05
2023-05-09T10:19:45.932Z,5.45
2023-05-09T10:22:15.713Z,6.72
2023-05-09T10:25:02.377Z,6.50
2023-05-09T10:27:31.843Z,5.40
2023-05-09T10:30:13.323Z,8.00
2023-05-09T10:32:52.178Z,3.65
2023-05-09T10:35:24.728Z,6.25
2023-05-09T10:37:55.561Z,8.27
2023-05-09T10:40:22.778Z,5.80
2023-05-09T10:42:49.893Z,3.25
2023-05-09T10:45:18.327Z,7.22
2023-05-09T10:47:47.215Z,5.45
2023-05-09T10:50:14.994Z,3.22
2023-05-09T10:53:03.965Z,2.88
2023-05-09T10:55:46.595Z,2.72
2023-05-09T10:58:20.303Z,3.05
2023-05-09T11:00:50.672Z,5.55
2023-05-09T11:03:19.437Z,2.95
2023-05-09T11:05:48.842Z,6.43
2023-05-09T11:08:25.569Z,3.90
2023-05-09T11:11:22.459Z,3.47
2023-05-09T11:13:49.308Z,1.85
2023-05-09T11:16:16.166Z,1.92
2023-05-09T11:18:52.490Z,3.15
2023-05-09T11:21:20.497Z,5.05
2023-05-09T11:23:48.486Z,5.43
2023-05-09T11:26:16.811Z,3.95
2023-05-09T11:28:52.660Z,2.95
2023-05-09T11:31:19.592Z,5.70
2023-05-09T11:33:55.099Z,4.82
2023-05-09T11:36:34.901Z,8.27
2023-05-09T11:39:06.461Z,3.08
2023-05-09T11:41:44.569Z,3.35
2023-05-09T11:44:21.386Z,3.50
2023-05-09T11:46:49.608Z,4.78
2023-05-09T11:49:17.751Z,5.00
2023-05-09T11:51:44.680Z,4.05
2023-05-09T11:54:13.660Z,6.03
2023-05-09T11:56:42.095Z,2.55
2023-05-09T11:59:10.561Z,6.85
2023-05-09T12:01:37.954Z,3.20
2023-05-09T12:04:07.934Z,3.55
2023-05-09T12:06:34.901Z,2.38
2023-05-09T12:09:02.126Z,2.85
2023-05-09T12:11:32.489Z,2.17
2023-05-09T12:13:59.612Z,2.63
2023-05-09T12:16:26.609Z,2.05
2023-05-09T12:18:53.738Z,1.75
2023-05-09T12:21:21.727Z,2.97
2023-05-09T12:23:50.986Z,2.08
2023-05-09T12:26:19.311Z,2.80
2023-05-09T12:28:47.439Z,3.83
2023-05-09T12:31:14.574Z,3.78
2023-05-09T12:33:41.953Z,2.47
2023-05-09T12:36:11.576Z,2.83
2023-05-09T12:38:39.067Z,3.65
2023-05-09T12:41:13.004Z,2.80
2023-05-09T12:43:50.933Z,4.47
2023-05-09T12:46:20.087Z,4.15
2023-05-09T12:48:48.648Z,2.50
2023-05-09T12:51:22.878Z,1.55
2023-05-09T12:53:49.877Z,1.80
2023-05-09T12:56:19.324Z,3.08
2023-05-09T12:58:50.269Z,3.55
2023-05-09T13:01:17.826Z,3.20
2023-05-09T13:03:50.749Z,1.70
2023-05-09T13:06:17.744Z,3.28
2023-05-09T13:08:44.663Z,10.25
2023-05-09T13:11:16.744Z,2.63
2023-05-09T13:13:44.066Z,1.83
2023-05-09T13:16:12.580Z,2.35
2023-05-09T13:18:41.050Z,1.75
2023-05-09T13:21:08.277Z,3.40
2023-05-09T13:23:35.187Z,3.10
2023-05-09T13:26:02.001Z,2.55
2023-05-09T13:28:29.041Z,3.38
2023-05-09T13:30:55.954Z,2.45
2023-05-09T13:33:26.235Z,4.22
2023-05-09T13:35:53.789Z,4.63
2023-05-09T13:38:20.936Z,7.93
2023-05-09T13:40:47.787Z,3.22
2023-05-09T13:43:14.645Z,3.40
2023-05-09T13:45:41.927Z,3.40
2023-05-09T13:48:09.462Z,3.83
2023-05-09T13:50:36.798Z,2.70
2023-05-09T13:53:04.040Z,3.10
2023-05-09T13:55:31.057Z,2.78
2023-05-09T13:57:57.971Z,5.53
2023-05-09T14:00:26.668Z,3.40
2023-05-09T14:02:54.226Z,4.70
2023-05-09T14:05:21.223Z,2.85
2023-05-09T14:07:48.128Z,2.28
2023-05-09T14:10:15.095Z,2.17
2023-05-09T14:12:44.605Z,4.57
2023-05-09T14:15:11.751Z,5.50
2023-05-09T14:17:39.910Z,4.32
2023-05-09T14:20:08.342Z,4.57
2023-05-09T14:22:35.377Z,3.88
2023-05-09T14:25:02.883Z,8.20
2023-05-09T14:27:30.299Z,2.55
2023-05-09T14:29:59.408Z,3.38
2023-05-09T14:32:26.450Z,4.85
2023-05-09T14:34:53.290Z,4.82
2023-05-09T14:37:20.155Z,2.88
2023-05-09T14:39:47.524Z,3.83
2023-05-09T14:42:16.589Z,2.35
2023-05-09T14:44:44.725Z,5.15
2023-05-09T14:47:12.152Z,4.10
2023-05-09T14:49:40.069Z,3.35
2023-05-09T14:52:06.984Z,2.65
2023-05-09T14:54:34.845Z,4.00
2023-05-09T14:57:05.077Z,3.22
2023-05-09T14:59:32.158Z,4.88
2023-05-09T15:01:59.193Z,3.63
2023-05-09T15:04:30.553Z,4.45
2023-05-09T15:06:59.110Z,4.38
2023-05-09T15:09:26.860Z,4.65
2023-05-09T15:11:55.140Z,5.97
2023-05-09T15:14:22.096Z,3.28
2023-05-09T15:16:51.605Z,2.25
2023-05-09T15:19:18.817Z,2.00
2023-05-09T15:21:45.688Z,3.70
2023-05-09T15:24:12.745Z,2.83
2023-05-09T15:26:39.608Z,3.70
2023-05-09T15:29:06.501Z,3.03
2023-05-09T15:31:33.891Z,2.20
2023-05-09T15:34:01.472Z,3.20
2023-05-09T15:36:32.175Z,3.40
2023-05-09T15:38:59.950Z,3.13
2023-05-09T15:41:27.371Z,7.07
2023-05-09T15:43:55.074Z,4.10
2023-05-09T15:46:22.294Z,7.82
2023-05-09T15:48:49.715Z,3.40
2023-05-09T15:51:16.938Z,5.60
2023-05-09T15:53:43.794Z,3.92
2023-05-09T15:56:10.679Z,4.50
2023-05-09T15:58:38.937Z,4.47
2023-05-09T16:01:07.952Z,4.13
2023-05-09T16:03:35.121Z,3.25
2023-05-09T16:06:02.245Z,3.22
2023-05-09T16:08:29.113Z,3.60
2023-05-09T16:10:56.018Z,3.92
2023-05-09T16:13:22.924Z,2.85
2023-05-09T16:15:51.186Z,4.90
2023-05-09T16:18:18.786Z,2.53
2023-05-09T16:20:45.805Z,3.40
2023-05-09T16:23:13.113Z,3.97
2023-05-09T16:25:39.994Z,4.75
2023-05-09T16:28:08.294Z,2.35
2023-05-09T16:30:35.292Z,2.55
2023-05-09T16:33:02.293Z,1.65
2023-05-09T16:35:29.667Z,3.08
2023-05-09T16:37:57.084Z,6.10
2023-05-09T16:40:23.963Z,2.35
2023-05-09T16:42:50.835Z,2.88
2023-05-09T16:45:17.758Z,5.22
2023-05-09T16:47:44.703Z,2.50
2023-05-09T16:50:11.990Z,2.92
2023-05-09T16:52:38.943Z,2.45
2023-05-09T16:55:06.362Z,4.10
2023-05-09T16:57:33.684Z,3.35
2023-05-09T17:00:00.788Z,3.00
2023-05-09T17:02:27.954Z,5.57
2023-05-09T17:04:55.181Z,3.83
2023-05-09T17:07:22.666Z,3.70
2023-05-09T17:09:50.261Z,3.17
2023-05-09T17:12:18.575Z,2.67
2023-05-09T17:14:47.198Z,3.35
2023-05-09T17:17:14.955Z,3.25
2023-05-09T17:19:42.751Z,3.15
2023-05-09T17:22:10.287Z,2.80
2023-05-09T17:24:38.123Z,3.95
2023-05-09T17:27:08.032Z,4.15
2023-05-09T17:29:35.340Z,4.20
2023-05-09T17:32:03.181Z,2.80
2023-05-09T17:34:33.858Z,4.20
2023-05-09T17:37:06.041Z,5.95
2023-05-09T17:39:34.029Z,2.90
2023-05-09T17:42:02.278Z,3.13
2023-05-09T17:44:30.409Z,5.55
2023-05-09T17:47:01.154Z,4.70
2023-05-09T17:49:29.526Z,3.55
2023-05-09T17:51:57.225Z,2.00
2023-05-09T17:54:24.918Z,5.70
2023-05-09T17:56:59.326Z,2.83
2023-05-09T17:59:27.094Z,5.50
2023-05-09T18:01:55.038Z,5.28
2023-05-09T18:04:25.491Z,4.05
2023-05-09T18:06:53.461Z,4.32
2023-05-09T18:09:21.446Z,4.55
2023-05-09T18:11:48.977Z,2.75
2023-05-09T18:14:16.681Z,3.35
2023-05-09T18:16:44.613Z,7.90
2023-05-09T18:19:12.434Z,7.20
2023-05-09T18:21:39.586Z,4.95
2023-05-09T18:24:09.416Z,5.25
2023-05-09T18:26:36.851Z,5.82
2023-05-09T18:29:06.801Z,3.70
2023-05-09T18:31:42.174Z,3.80
2023-05-09T18:34:09.716Z,4.85
2023-05-09T18:36:37.061Z,3.88
2023-05-09T18:39:04.528Z,7.22
2023-05-09T18:41:33.160Z,3.60
2023-05-09T18:44:00.238Z,5.55
2023-05-09T18:46:28.111Z,4.10
2023-05-09T18:48:55.961Z,5.50
2023-05-09T18:51:24.235Z,5.53
2023-05-09T18:53:52.420Z,5.88
2023-05-09T18:56:22.693Z,5.05
2023-05-09T18:58:50.394Z,5.32
2023-05-09T19:01:19.420Z,6.28
2023-05-09T19:03:47.759Z,6.80
2023-05-09T19:09:01.677Z,7.18
2023-05-09T19:11:28.799Z,9.68
2023-05-09T19:13:55.768Z,7.85
2023-05-09T19:16:24.849Z,9.68
2023-05-09T19:18:56.205Z,9.52
2023-05-09T19:24:04.499Z,10.65
2023-05-09T19:26:32.436Z,8.85
2023-05-09T19:29:00.673Z,8.05
2023-05-09T19:31:28.137Z,9.18
2023-05-09T19:33:55.216Z,7.80
2023-05-09T19:36:22.186Z,8.23
2023-05-09T19:38:49.564Z,7.90
2023-05-09T19:41:16.473Z,8.35
2023-05-09T19:43:43.884Z,8.15
2023-05-09T19:46:10.780Z,7.68
2023-05-09T19:48:37.732Z,7.68
2023-05-09T19:51:04.698Z,9.30
2023-05-09T19:53:31.627Z,9.25
2023-05-09T19:55:58.791Z,8.00
2023-05-09T19:58:27.584Z,11.75
2023-05-09T20:00:54.874Z,6.30
2023-05-09T20:03:21.928Z,6.97
2023-05-09T20:05:48.881Z,7.03
2023-05-09T20:08:15.983Z,7.28
2023-05-09T20:10:43.583Z,8.02
2023-05-09T20:13:10.647Z,9.80
2023-05-09T20:15:57.574Z,11.25
2023-05-09T20:18:49.072Z,12.48
2023-05-09T20:21:38.248Z,10.10
2023-05-09T20:26:40.814Z,10.27
2023-05-09T20:29:11.406Z,11.07
2023-05-09T20:31:38.646Z,12.43
2023-05-09T20:34:10.596Z,10.57
2023-05-09T20:36:38.252Z,9.05
2023-05-09T20:39:05.647Z,9.90
2023-05-09T20:41:35.050Z,12.55
2023-05-09T20:44:04.240Z,12.07
2023-05-09T20:46:31.359Z,10.30
2023-05-09T20:48:58.668Z,9.32
2023-05-09T20:51:26.032Z,9.27
2023-05-09T20:53:53.297Z,9.43
2023-05-09T20:56:20.155Z,10.13
2023-05-09T20:58:47.445Z,15.45
2023-05-09T21:01:14.723Z,11.60
2023-05-09T21:03:41.798Z,11.15
2023-05-09T21:06:08.829Z,11.32
2023-05-09T21:08:37.647Z,9.70
2023-05-09T21:11:13.213Z,14.30
2023-05-09T21:13:55.527Z,14.65
2023-05-09T21:16:23.223Z,11.38
2023-05-09T21:18:50.522Z,12.35
2023-05-09T21:21:17.384Z,11.55
2023-05-09T21:25:55.856Z,9.13
2023-05-09T21:28:22.854Z,8.13
2023-05-09T21:30:54.589Z,13.18
2023-05-09T21:33:22.135Z,9.70
2023-05-09T21:35:49.025Z,14.68
2023-05-09T21:38:15.901Z,9.55
2023-05-09T21:40:43.248Z,12.05
2023-05-09T21:43:11.674Z,11.93
2023-05-09T21:45:39.458Z,11.95
2023-05-09T21:48:06.604Z,10.63
2023-05-09T21:50:33.529Z,8.85
2023-05-09T21:53:00.496Z,10.10
2023-05-09T21:55:27.469Z,9.63
2023-05-09T21:57:54.580Z,7.93
2023-05-09T22:00:21.868Z,8.23
2023-05-09T22:02:49.753Z,7.22
2023-05-09T22:05:16.785Z,8.82
2023-05-09T22:07:43.668Z,8.32
2023-05-09T22:10:11.316Z,10.68
2023-05-09T22:12:38.477Z,6.75
2023-05-09T22:15:06.362Z,7.50
2023-05-09T22:17:33.709Z,8.55
2023-05-09T22:20:00.785Z,7.97
2023-05-09T22:22:27.752Z,8.23
2023-05-09T22:24:54.656Z,7.32
2023-05-09T22:27:21.957Z,11.15
2023-05-09T22:29:48.838Z,7.93
2023-05-09T22:32:16.574Z,8.55
2023-05-09T22:34:48.020Z,9.65
2023-05-09T22:37:15.338Z,7.40
2023-05-09T22:39:42.633Z,11.00
2023-05-09T22:42:11.285Z,10.80
2023-05-09T22:44:39.501Z,12.10
2023-05-09T22:47:10.530Z,7.63
2023-05-09T22:49:37.495Z,8.38
2023-05-09T22:52:04.662Z,8.90
2023-05-09T22:54:31.538Z,7.95
2023-05-09T22:56:58.794Z,7.70
2023-05-09T22:59:25.679Z,8.52
2023-05-09T23:01:53.548Z,10.05
2023-05-09T23:04:21.097Z,8.30
2023-05-09T23:06:48.034Z,7.35
2023-05-09T23:09:15.363Z,7.35
2023-05-09T23:11:42.397Z,7.90
2023-05-09T23:14:09.696Z,7.40
2023-05-09T23:16:36.730Z,6.72
2023-05-09T23:19:04.452Z,10.38
2023-05-09T23:21:31.792Z,6.20
2023-05-09T23:23:58.683Z,8.90
2023-05-09T23:26:25.567Z,6.28
2023-05-09T23:28:55.151Z,6.68
2023-05-09T23:31:22.187Z,9.23
2023-05-09T23:33:49.111Z,6.65
2023-05-09T23:36:15.996Z,8.90
2023-05-09T23:38:42.840Z,9.23
2023-05-09T23:41:09.833Z,9.38
2023-05-09T23:43:37.798Z,6.65
2023-05-09T23:46:04.690Z,7.75
2023-05-09T23:48:31.646Z,5.85
2023-05-09T23:50:58.876Z,6.53
2023-05-09T23:53:26.184Z,13.00
2023-05-09T23:55:53.012Z,8.63
2023-05-09T23:58:19.842Z,5.82
